Time;durP1;ratioP1;P1;durP2;ratioP2;P2;SDS_P1;SDS_P2;PMS_P1;PMS_P2;Temp;Humidity;BMP_temperature;BMP_pressure;BME280_temperature;BME280_humidity;BME280_pressure;Samples;Min_cycle;Max_cycle;Signal;HPM_P1;HPM_P2
2023/07/07 00:01:07;;;;;;;4.85;3.08;;;17.80;99.90;;;;;;5047333;28;20412;-41
2023/07/07 00:03:37;;;;;;;4.63;3.35;;;17.80;99.90;;;;;;5047203;28;20594;-41
2023/07/07 00:06:03;;;;;;;2.88;2.63;;;17.70;99.90;;;;;;5047373;28;20368;-41
2023/07/07 00:08:28;;;;;;;3.97;2.97;;;17.70;99.90;;;;;;5047250;28;20032;-41
2023/07/07 00:10:58;;;;;;;3.88;3.22;;;17.70;99.90;;;;;;5046582;28;20059;-42
2023/07/07 00:13:24;;;;;;;3.78;3.20;;;17.70;99.90;;;;;;5047206;28;20498;-42
2023/07/07 00:15:50;;;;;;;5.30;3.50;;;17.70;99.90;;;;;;5047038;28;20029;-41
2023/07/07 00:18:26;;;;;;;4.15;3.30;;;17.70;99.90;;;;;;5045842;28;20214;-41
2023/07/07 00:20:59;;;;;;;4.75;3.50;;;17.70;99.90;;;;;;5047132;28;20128;-41
2023/07/07 00:23:26;;;;;;;3.90;3.30;;;17.70;99.90;;;;;;5046412;28;20025;-41
2023/07/07 00:26:08;;;;;;;4.00;3.40;;;17.60;99.90;;;;;;5047241;28;20028;-40
2023/07/07 00:28:35;;;;;;;4.22;3.40;;;17.60;99.90;;;;;;5047137;28;20086;-41
2023/07/07 00:31:01;;;;;;;4.80;3.75;;;17.60;99.90;;;;;;5046475;28;20480;-41
2023/07/07 00:33:27;;;;;;;3.97;3.58;;;17.60;99.90;;;;;;5045896;28;20032;-41
2023/07/07 00:35:53;;;;;;;3.47;3.13;;;17.50;99.90;;;;;;5047026;28;20385;-41
2023/07/07 00:38:19;;;;;;;4.15;3.50;;;17.50;99.90;;;;;;5046568;28;20055;-41
2023/07/07 00:40:45;;;;;;;5.57;3.50;;;17.50;99.90;;;;;;5046610;28;20037;-41
2023/07/07 00:43:16;;;;;;;4.10;3.10;;;17.40;99.90;;;;;;5046280;28;20025;-41
2023/07/07 00:45:42;;;;;;;3.67;2.90;;;17.40;99.90;;;;;;5045398;28;20025;-41
2023/07/07 00:48:20;;;;;;;4.15;3.35;;;17.40;99.90;;;;;;5046751;28;20021;-41
2023/07/07 00:51:06;;;;;;;4.20;3.38;;;17.40;99.90;;;;;;5046985;28;20033;-41
2023/07/07 00:53:32;;;;;;;5.47;3.42;;;17.40;99.90;;;;;;5046535;28;20431;-42
2023/07/07 00:56:19;;;;;;;4.72;3.72;;;17.30;99.90;;;;;;5047034;28;20582;-42
2023/07/07 00:58:45;;;;;;;7.45;4.00;;;17.30;99.90;;;;;;5045484;28;20053;-41
2023/07/07 01:01:17;;;;;;;5.22;3.55;;;17.30;99.90;;;;;;5046197;28;20037;-42
2023/07/07 01:03:50;;;;;;;5.20;3.92;;;17.30;99.90;;;;;;5046685;28;20021;-41
2023/07/07 01:06:22;;;;;;;4.65;4.10;;;17.30;99.90;;;;;;5044949;28;20561;-42
2023/07/07 01:09:14;;;;;;;5.38;4.10;;;17.30;99.90;;;;;;5046292;28;20027;-42
2023/07/07 01:11:40;;;;;;;4.85;4.28;;;17.20;99.90;;;;;;5044801;28;20041;-43
2023/07/07 01:14:14;;;;;;;5.38;4.00;;;17.20;99.90;;;;;;5045125;28;20017;-41
2023/07/07 01:16:52;;;;;;;5.13;4.20;;;17.20;99.90;;;;;;5045785;28;20086;-41
2023/07/07 01:19:44;;;;;;;6.68;3.78;;;17.10;99.90;;;;;;5045510;28;20070;-42
2023/07/07 01:22:38;;;;;;;5.57;3.97;;;17.10;99.90;;;;;;5045877;28;20036;-41
2023/07/07 01:25:27;;;;;;;4.30;3.90;;;17.10;99.90;;;;;;5039483;28;20047;-41
2023/07/07 01:28:31;;;;;;;6.93;3.90;;;17.00;99.90;;;;;;5025291;28;20033;-41
2023/07/07 01:31:05;;;;;;;5.18;4.40;;;17.00;99.90;;;;;;5044487;28;20590;-42
2023/07/07 01:33:32;;;;;;;6.03;3.63;;;17.00;99.90;;;;;;5044962;28;20033;-41
2023/07/07 01:35:58;;;;;;;4.55;4.00;;;17.00;99.90;;;;;;5045513;28;20025;-42
2023/07/07 01:38:36;;;;;;;4.88;4.13;;;17.00;99.90;;;;;;5045326;28;20397;-41
2023/07/07 01:41:07;;;;;;;4.53;4.13;;;17.00;99.90;;;;;;5044712;28;20128;-45
2023/07/07 01:44:04;;;;;;;4.07;3.67;;;16.90;99.90;;;;;;5045714;28;20047;-41
2023/07/07 01:46:36;;;;;;;4.35;3.60;;;16.90;99.90;;;;;;5045325;28;20116;-41
2023/07/07 01:49:13;;;;;;;4.22;3.72;;;16.90;99.90;;;;;;5045675;28;20116;-41
2023/07/07 01:51:56;;;;;;;4.53;3.90;;;16.90;99.90;;;;;;5045988;28;20464;-41
2023/07/07 01:54:22;;;;;;;4.97;4.30;;;16.90;99.90;;;;;;5045620;28;20453;-42
2023/07/07 01:56:49;;;;;;;5.38;4.30;;;16.80;99.90;;;;;;5045499;28;20032;-42
2023/07/07 01:59:16;;;;;;;4.90;4.15;;;16.80;99.90;;;;;;5045373;28;20072;-42
2023/07/07 02:01:45;;;;;;;6.68;4.32;;;16.80;99.90;;;;;;5044470;28;20111;-42
2023/07/07 02:04:14;;;;;;;5.60;4.40;;;16.80;99.90;;;;;;5045582;28;20028;-42
2023/07/07 02:06:40;;;;;;;5.53;4.30;;;16.70;99.90;;;;;;5045031;28;20049;-42
2023/07/07 02:09:06;;;;;;;4.53;4.13;;;16.70;99.90;;;;;;5044500;28;20025;-42
2023/07/07 02:11:32;;;;;;;5.32;4.10;;;16.70;99.90;;;;;;5044282;28;20061;-42
2023/07/07 02:13:57;;;;;;;7.00;4.65;;;16.70;99.90;;;;;;5045462;28;20049;-42
2023/07/07 02:16:23;;;;;;;5.30;4.35;;;16.70;99.90;;;;;;5044804;28;20104;-42
2023/07/07 02:18:48;;;;;;;5.72;4.65;;;16.60;99.90;;;;;;5044820;28;20025;-42
2023/07/07 02:21:18;;;;;;;6.28;4.20;;;16.70;99.90;;;;;;5044525;28;20029;-42
2023/07/07 02:23:49;;;;;;;5.95;4.75;;;16.60;99.90;;;;;;5044350;28;20086;-42
2023/07/07 02:26:18;;;;;;;5.05;4.32;;;16.60;99.90;;;;;;5044834;28;20068;-42
2023/07/07 02:28:44;;;;;;;7.30;4.70;;;16.60;99.90;;;;;;5044950;28;20029;-42
2023/07/07 02:31:11;;;;;;;7.03;4.90;;;16.50;99.90;;;;;;5044923;28;20033;-42
2023/07/07 02:33:36;;;;;;;6.38;4.60;;;16.50;99.90;;;;;;5045016;28;20465;-42
2023/07/07 02:36:04;;;;;;;5.93;4.57;;;16.50;99.90;;;;;;5044677;28;20040;-42
2023/07/07 02:38:30;;;;;;;5.45;4.60;;;16.50;99.90;;;;;;5041269;28;20020;-42
2023/07/07 02:40:56;;;;;;;6.43;4.72;;;16.50;99.90;;;;;;5045114;28;20036;-42
2023/07/07 02:43:22;;;;;;;7.35;4.93;;;16.40;99.90;;;;;;5044733;28;20032;-42
2023/07/07 02:45:48;;;;;;;8.85;5.20;;;16.40;99.90;;;;;;5044417;28;20116;-42
2023/07/07 02:48:16;;;;;;;6.45;5.20;;;16.40;99.90;;;;;;5044381;28;20028;-42
2023/07/07 02:50:42;;;;;;;6.05;5.00;;;16.40;99.90;;;;;;5044633;28;20473;-42
2023/07/07 02:53:08;;;;;;;10.43;4.90;;;16.40;99.90;;;;;;5045157;28;20021;-42
2023/07/07 02:55:33;;;;;;;7.20;5.22;;;16.40;99.90;;;;;;5044827;28;20108;-41
2023/07/07 02:57:59;;;;;;;7.50;5.03;;;16.30;99.90;;;;;;5044149;28;20013;-42
2023/07/07 03:00:24;;;;;;;7.13;5.18;;;16.30;99.90;;;;;;5043889;28;20033;-42
2023/07/07 03:02:50;;;;;;;6.43;4.45;;;16.30;99.90;;;;;;5043920;28;20024;-43
2023/07/07 03:05:16;;;;;;;5.40;4.90;;;16.30;99.90;;;;;;5043411;28;20033;-42
2023/07/07 03:07:42;;;;;;;6.05;5.00;;;16.30;99.90;;;;;;5044033;28;20098;-42
2023/07/07 03:10:10;;;;;;;5.85;4.93;;;16.30;99.90;;;;;;5043836;28;20469;-42
2023/07/07 03:12:36;;;;;;;5.05;4.55;;;16.30;99.90;;;;;;5043603;28;20039;-42
2023/07/07 03:15:04;;;;;;;6.10;5.15;;;16.20;99.90;;;;;;5044027;28;20013;-42
2023/07/07 03:17:33;;;;;;;5.25;4.75;;;16.20;99.90;;;;;;5044261;28;20071;-42
2023/07/07 03:19:58;;;;;;;6.55;4.75;;;16.20;99.90;;;;;;5043999;28;20123;-42
2023/07/07 03:22:24;;;;;;;5.20;4.45;;;16.10;99.90;;;;;;5044129;28;20116;-40
2023/07/07 03:24:55;;;;;;;7.93;5.43;;;16.10;99.90;;;;;;5044321;28;20021;-42
2023/07/07 03:27:21;;;;;;;6.22;5.03;;;16.10;99.90;;;;;;5043711;28;20529;-42
2023/07/07 03:29:49;;;;;;;5.93;4.68;;;16.10;99.90;;;;;;5044306;28;20025;-42
2023/07/07 03:32:14;;;;;;;6.20;5.28;;;16.10;99.90;;;;;;5044093;28;20029;-42
2023/07/07 03:34:49;;;;;;;6.10;4.90;;;16.10;99.90;;;;;;5043577;28;20036;-42
2023/07/07 03:37:19;;;;;;;5.68;4.63;;;16.10;99.90;;;;;;5023862;28;20663;-42
2023/07/07 03:39:51;;;;;;;7.55;4.75;;;16.10;99.90;;;;;;5038751;28;20040;-42
2023/07/07 03:42:16;;;;;;;6.03;5.43;;;16.10;99.90;;;;;;5044203;28;20041;-42
2023/07/07 03:44:42;;;;;;;5.55;4.78;;;16.10;99.90;;;;;;5043845;28;20108;-42
2023/07/07 03:47:07;;;;;;;7.03;5.28;;;16.10;99.90;;;;;;5043284;28;20465;-43
2023/07/07 03:49:33;;;;;;;7.47;5.15;;;16.10;99.90;;;;;;5043687;28;20025;-42
2023/07/07 03:51:59;;;;;;;7.43;5.05;;;16.10;99.90;;;;;;5044151;28;20029;-43
2023/07/07 03:54:24;;;;;;;6.07;5.00;;;16.10;99.90;;;;;;5045702;28;20496;-42
2023/07/07 03:56:50;;;;;;;7.55;5.25;;;16.10;99.90;;;;;;5047829;28;20551;-43
2023/07/07 03:59:15;;;;;;;8.40;5.20;;;16.10;99.90;;;;;;5047781;28;20472;-43
2023/07/07 04:01:44;;;;;;;5.97;4.70;;;16.10;99.90;;;;;;5046345;28;20762;-42
2023/07/07 04:04:09;;;;;;;5.97;5.05;;;16.10;99.90;;;;;;5046931;28;20060;-42
2023/07/07 04:06:35;;;;;;;7.35;5.15;;;16.10;99.90;;;;;;5047447;28;20533;-42
2023/07/07 04:09:01;;;;;;;8.32;5.07;;;16.10;99.90;;;;;;5046914;28;20448;-42
2023/07/07 04:11:26;;;;;;;6.68;5.55;;;16.10;99.90;;;;;;5047105;28;20071;-41
2023/07/07 04:13:52;;;;;;;6.72;5.20;;;16.10;99.90;;;;;;5047127;28;20056;-42
2023/07/07 04:16:23;;;;;;;6.70;5.22;;;16.10;99.90;;;;;;5046654;28;20067;-42
2023/07/07 04:18:50;;;;;;;7.60;5.93;;;16.10;99.90;;;;;;5047374;28;20051;-42
2023/07/07 04:21:23;;;;;;;7.07;5.28;;;16.10;99.90;;;;;;5046956;28;20485;-41
2023/07/07 04:23:50;;;;;;;9.15;5.88;;;16.10;99.90;;;;;;5036499;28;20032;-42
2023/07/07 04:26:20;;;;;;;7.22;5.63;;;16.10;99.90;;;;;;5046628;28;20048;-42
2023/07/07 04:28:46;;;;;;;5.63;4.72;;;16.10;99.90;;;;;;5046931;28;20508;-42
2023/07/07 04:31:13;;;;;;;8.68;5.72;;;16.10;99.90;;;;;;5046118;28;20037;-41
2023/07/07 04:33:42;;;;;;;6.97;5.10;;;16.10;99.90;;;;;;5047612;28;20025;-41
2023/07/07 04:36:10;;;;;;;7.85;4.82;;;16.20;99.90;;;;;;5046310;28;20017;-41
2023/07/07 04:38:39;;;;;;;6.32;4.97;;;16.20;99.90;;;;;;5047309;28;20024;-42
2023/07/07 04:41:10;;;;;;;6.93;4.88;;;16.10;99.90;;;;;;5046803;28;20393;-41
2023/07/07 04:43:37;;;;;;;7.10;5.22;;;16.20;99.90;;;;;;5046002;28;20024;-41
2023/07/07 04:46:07;;;;;;;6.80;5.30;;;16.20;99.90;;;;;;5047162;28;20028;-42
2023/07/07 04:48:32;;;;;;;6.35;4.53;;;16.20;99.90;;;;;;5047080;28;20043;-41
2023/07/07 04:51:03;;;;;;;6.22;4.80;;;16.20;99.90;;;;;;5046006;28;20362;-42
2023/07/07 04:53:30;;;;;;;6.03;4.50;;;16.30;99.90;;;;;;5036174;28;20059;-41
2023/07/07 04:55:57;;;;;;;5.82;4.50;;;16.30;99.90;;;;;;5046904;28;20039;-41
2023/07/07 04:58:26;;;;;;;6.65;5.10;;;16.30;99.90;;;;;;5045329;28;20078;-42
2023/07/07 05:01:22;;;;;;;5.60;4.85;;;16.30;99.90;;;;;;5046129;28;20087;-42
2023/07/07 05:03:54;;;;;;;5.70;4.50;;;16.30;99.90;;;;;;5034518;28;20033;-42
2023/07/07 05:06:22;;;;;;;7.15;5.03;;;16.30;99.90;;;;;;5045569;28;20083;-42
2023/07/07 05:08:51;;;;;;;6.97;5.20;;;16.40;99.90;;;;;;5046146;28;20032;-42
2023/07/07 05:11:19;;;;;;;7.68;5.13;;;16.40;99.90;;;;;;5045570;28;20025;-42
2023/07/07 05:13:46;;;;;;;6.78;5.30;;;16.40;99.90;;;;;;5045775;28;20481;-42
2023/07/07 05:16:14;;;;;;;6.07;5.00;;;16.50;99.90;;;;;;5045782;28;20039;-42
2023/07/07 05:18:40;;;;;;;5.32;4.40;;;16.50;99.90;;;;;;5044193;28;20074;-42
2023/07/07 05:21:07;;;;;;;5.20;4.70;;;16.50;99.90;;;;;;5046136;28;20044;-42
2023/07/07 05:23:34;;;;;;;6.15;4.50;;;16.60;99.90;;;;;;5045688;28;20373;-41
2023/07/07 05:25:59;;;;;;;6.68;4.78;;;16.60;99.90;;;;;;5045020;28;20396;-41
2023/07/07 05:28:26;;;;;;;6.65;4.45;;;16.60;99.90;;;;;;5045578;28;20036;-41
2023/07/07 05:30:51;;;;;;;7.50;5.05;;;16.70;99.90;;;;;;5045790;28;20036;-42
2023/07/07 05:33:17;;;;;;;5.70;4.38;;;16.70;99.90;;;;;;5044586;28;20037;-42
2023/07/07 05:35:47;;;;;;;5.32;4.28;;;16.70;99.90;;;;;;5045406;28;20035;-42
2023/07/07 05:38:15;;;;;;;6.15;4.30;;;16.70;99.90;;;;;;5044909;28;20123;-42
2023/07/07 05:40:42;;;;;;;5.40;4.53;;;16.80;99.90;;;;;;5052389;28;20507;-42
2023/07/07 05:43:14;;;;;;;4.70;3.85;;;16.80;99.90;;;;;;5056031;28;20017;-42
2023/07/07 05:45:40;;;;;;;4.70;4.05;;;16.80;99.90;;;;;;5045908;28;20050;-41
2023/07/07 05:48:07;;;;;;;4.70;3.97;;;16.90;99.90;;;;;;5042841;28;20028;-41
2023/07/07 05:50:33;;;;;;;4.80;4.38;;;16.90;99.90;;;;;;5044490;28;20079;-42
2023/07/07 05:52:59;;;;;;;7.00;4.45;;;17.00;99.90;;;;;;5045651;28;20392;-41
2023/07/07 05:55:32;;;;;;;4.57;4.00;;;17.00;99.90;;;;;;5044461;28;20037;-41
2023/07/07 05:57:58;;;;;;;5.18;3.97;;;17.10;99.90;;;;;;5045285;28;20028;-41
2023/07/07 06:00:25;;;;;;;4.35;3.70;;;17.10;99.90;;;;;;5045276;28;20573;-41
2023/07/07 06:02:51;;;;;;;4.50;3.60;;;17.10;99.90;;;;;;5044310;28;20031;-42
2023/07/07 06:05:17;;;;;;;4.88;3.80;;;17.20;99.90;;;;;;5045121;28;20425;-41
2023/07/07 06:07:43;;;;;;;3.60;3.30;;;17.20;99.90;;;;;;5044054;28;20048;-41
2023/07/07 06:10:14;;;;;;;5.22;3.58;;;17.30;99.90;;;;;;5044288;28;20025;-41
2023/07/07 06:12:40;;;;;;;4.25;3.30;;;17.30;99.90;;;;;;5045206;28;20021;-41
2023/07/07 06:15:07;;;;;;;4.35;3.40;;;17.40;99.90;;;;;;5042617;28;20055;-42
2023/07/07 06:17:33;;;;;;;5.07;3.30;;;17.50;99.90;;;;;;5044759;28;20029;-41
2023/07/07 06:19:58;;;;;;;4.07;3.00;;;17.50;99.90;;;;;;5044693;28;20021;-41
2023/07/07 06:22:24;;;;;;;5.53;3.42;;;17.60;99.90;;;;;;5043711;28;20484;-41
2023/07/07 06:24:51;;;;;;;5.13;3.25;;;17.70;99.90;;;;;;5044669;28;20765;-41
2023/07/07 06:27:17;;;;;;;6.75;3.13;;;17.70;99.90;;;;;;5043558;28;20111;-41
2023/07/07 06:29:46;;;;;;;3.90;3.28;;;17.80;99.90;;;;;;5044033;28;20104;-42
2023/07/07 06:32:11;;;;;;;3.90;2.90;;;17.90;99.90;;;;;;5045248;28;20051;-41
2023/07/07 06:34:37;;;;;;;4.65;3.22;;;17.80;99.90;;;;;;5044900;28;20111;-41
2023/07/07 06:37:03;;;;;;;5.90;3.17;;;17.90;99.90;;;;;;5044931;28;20108;-41
2023/07/07 06:39:28;;;;;;;4.30;3.00;;;18.00;99.90;;;;;;5044080;28;20729;-41
2023/07/07 06:41:55;;;;;;;4.93;3.50;;;18.00;99.90;;;;;;5044582;28;20077;-42
2023/07/07 06:44:21;;;;;;;4.35;2.97;;;18.10;99.90;;;;;;5043948;28;20502;-42
2023/07/07 06:46:46;;;;;;;4.72;3.03;;;18.10;99.90;;;;;;5044548;28;20021;-42
2023/07/07 06:49:12;;;;;;;3.55;3.05;;;18.20;99.90;;;;;;5044609;28;20021;-42
2023/07/07 06:51:37;;;;;;;3.00;2.70;;;18.20;99.90;;;;;;5043924;28;20863;-42
2023/07/07 06:54:03;;;;;;;5.22;3.47;;;18.30;99.90;;;;;;5045002;28;20431;-42
2023/07/07 06:56:32;;;;;;;4.13;3.08;;;18.30;99.90;;;;;;5044524;28;20047;-42
2023/07/07 06:58:58;;;;;;;3.65;2.83;;;18.30;99.90;;;;;;5043845;28;20029;-41
2023/07/07 07:01:23;;;;;;;4.05;2.92;;;18.40;99.90;;;;;;5043799;28;20047;-42
2023/07/07 07:03:49;;;;;;;4.13;3.10;;;18.40;99.90;;;;;;5043619;28;20021;-42
2023/07/07 07:06:15;;;;;;;3.17;2.53;;;18.50;99.90;;;;;;5044255;28;20418;-42
2023/07/07 07:08:40;;;;;;;2.35;2.08;;;18.60;99.90;;;;;;5044663;28;20086;-42
2023/07/07 07:11:06;;;;;;;2.85;2.30;;;18.70;99.90;;;;;;5043394;28;20040;-42
2023/07/07 07:13:32;;;;;;;3.72;2.00;;;18.70;99.90;;;;;;5044358;28;20025;-42
2023/07/07 07:15:58;;;;;;;2.75;1.92;;;18.80;99.90;;;;;;5044388;28;20025;-42
2023/07/07 07:18:24;;;;;;;3.05;2.30;;;18.90;99.90;;;;;;5043627;28;20029;-42
2023/07/07 07:20:51;;;;;;;3.83;2.38;;;19.00;99.90;;;;;;5043909;28;20025;-41
2023/07/07 07:23:17;;;;;;;5.70;2.50;;;19.00;99.90;;;;;;5044484;28;20147;-42
2023/07/07 07:25:44;;;;;;;3.08;2.15;;;19.10;99.90;;;;;;5043457;28;20112;-42
2023/07/07 07:28:11;;;;;;;5.57;2.58;;;19.10;99.90;;;;;;5044810;28;20104;-42
2023/07/07 07:30:36;;;;;;;4.82;2.80;;;19.20;99.90;;;;;;5048352;28;20021;-42
2023/07/07 07:33:10;;;;;;;4.28;2.65;;;19.20;99.90;;;;;;5047856;28;20098;-42
2023/07/07 07:35:35;;;;;;;5.72;2.58;;;19.20;99.90;;;;;;5048503;28;20471;-42
2023/07/07 07:38:01;;;;;;;5.18;3.13;;;19.20;99.90;;;;;;5048136;28;20046;-42
2023/07/07 07:40:27;;;;;;;5.93;3.30;;;19.30;99.90;;;;;;5047700;28;20035;-42
2023/07/07 07:42:53;;;;;;;5.75;2.97;;;19.30;99.90;;;;;;5047828;28;20253;-42
2023/07/07 07:45:24;;;;;;;5.55;2.90;;;19.30;99.90;;;;;;5047897;28;20025;-43
2023/07/07 07:47:51;;;;;;;5.67;2.80;;;19.40;99.90;;;;;;5047275;28;20170;-45
2023/07/07 07:50:19;;;;;;;4.75;3.03;;;19.40;99.90;;;;;;5047705;28;20401;-42
2023/07/07 07:52:45;;;;;;;6.45;2.75;;;19.50;99.90;;;;;;5047680;28;20048;-41
2023/07/07 07:55:11;;;;;;;4.10;2.70;;;19.60;99.90;;;;;;5047047;28;20029;-42
2023/07/07 07:57:37;;;;;;;4.38;2.45;;;19.70;99.90;;;;;;5048120;28;20017;-42
2023/07/07 08:00:04;;;;;;;7.05;2.83;;;19.70;99.90;;;;;;5047327;28;20051;-42
2023/07/07 08:02:30;;;;;;;4.07;2.50;;;19.70;99.90;;;;;;5047445;28;20033;-42
2023/07/07 08:04:56;;;;;;;3.88;2.15;;;19.80;99.90;;;;;;5047204;28;20029;-41
2023/07/07 08:07:22;;;;;;;4.47;2.70;;;19.90;99.90;;;;;;5046423;28;20037;-42
2023/07/07 08:09:47;;;;;;;3.95;2.28;;;19.90;99.90;;;;;;5047504;28;20128;-41
2023/07/07 08:12:13;;;;;;;3.85;1.85;;;19.90;99.90;;;;;;5047395;28;20021;-41
2023/07/07 08:14:39;;;;;;;3.33;2.05;;;20.00;99.90;;;;;;5047302;28;20017;-41
2023/07/07 08:17:08;;;;;;;2.92;1.88;;;20.00;99.90;;;;;;5047008;28;20104;-42
2023/07/07 08:19:38;;;;;;;2.03;1.60;;;20.10;99.90;;;;;;5045415;28;20025;-41
2023/07/07 08:22:11;;;;;;;4.10;2.00;;;20.10;99.90;;;;;;5046567;28;20128;-41
2023/07/07 08:24:38;;;;;;;;;;;20.10;99.90;;;;;;5047414;28;20025;-42
2023/07/07 08:27:04;;;;;;;2.35;1.63;;;20.20;99.90;;;;;;5047568;28;19916;-42
2023/07/07 08:29:29;;;;;;;2.55;1.48;;;20.20;99.90;;;;;;5046199;28;20029;-42
2023/07/07 08:31:55;;;;;;;1.80;1.30;;;20.30;99.90;;;;;;5047001;28;20429;-41
2023/07/07 08:34:20;;;;;;;2.20;1.58;;;20.30;99.90;;;;;;5046883;28;20028;-42
2023/07/07 08:36:58;;;;;;;2.25;1.50;;;20.30;99.90;;;;;;5046177;28;20013;-42
2023/07/07 08:39:26;;;;;;;2.40;1.40;;;20.40;99.90;;;;;;5046230;28;20024;-42
2023/07/07 08:42:01;;;;;;;1.98;1.40;;;20.50;99.90;;;;;;5046704;28;20029;-42
2023/07/07 08:44:30;;;;;;;2.28;1.50;;;20.60;99.90;;;;;;5046201;28;20108;-41
2023/07/07 08:47:10;;;;;;;3.60;1.55;;;20.70;99.90;;;;;;5046719;28;20559;-42
2023/07/07 08:49:58;;;;;;;2.97;1.90;;;20.80;99.90;;;;;;5045501;28;20021;-42
2023/07/07 08:52:32;;;;;;;2.20;1.67;;;20.90;99.90;;;;;;5046743;28;20166;-41
2023/07/07 08:55:10;;;;;;;2.28;1.85;;;21.00;99.90;;;;;;5047053;28;20025;-41
2023/07/07 08:57:44;;;;;;;1.70;1.40;;;21.10;99.90;;;;;;5046045;28;20143;-42
2023/07/07 09:00:33;;;;;;;3.17;1.65;;;21.10;99.90;;;;;;5046646;28;20399;-42
2023/07/07 09:03:31;;;;;;;1.83;1.60;;;21.20;99.90;;;;;;5047143;28;20064;-42
2023/07/07 09:06:22;;;;;;;1.80;1.60;;;21.20;99.90;;;;;;5045879;28;20053;-42
2023/07/07 09:09:18;;;;;;;2.47;1.38;;;21.30;99.90;;;;;;5046706;28;20052;-42
2023/07/07 09:12:22;;;;;;;1.30;1.20;;;21.40;99.90;;;;;;5045725;28;20423;-42
2023/07/07 09:14:50;;;;;;;2.03;1.30;;;21.40;99.90;;;;;;5046526;28;20021;-42
2023/07/07 09:17:23;;;;;;;3.25;1.30;;;21.40;99.90;;;;;;5046449;28;20063;-41
2023/07/07 09:19:51;;;;;;;1.58;1.20;;;21.60;99.90;;;;;;5046235;28;20021;-41
2023/07/07 09:22:30;;;;;;;1.38;1.27;;;21.70;99.90;;;;;;5045808;28;20064;-42
2023/07/07 09:25:08;;;;;;;2.50;1.67;;;21.70;99.90;;;;;;5046153;28;20059;-42
2023/07/07 09:27:42;;;;;;;3.78;1.70;;;21.80;99.90;;;;;;5035040;28;20052;-42
2023/07/07 09:30:19;;;;;;;2.28;1.60;;;21.90;99.90;;;;;;5045238;28;20493;-41
2023/07/07 09:32:46;;;;;;;1.45;1.35;;;22.10;99.90;;;;;;5034325;28;20037;-41
2023/07/07 09:35:16;;;;;;;1.50;1.40;;;22.20;99.90;;;;;;5045820;28;20032;-42
2023/07/07 09:38:07;;;;;;;2.17;1.50;;;22.20;99.90;;;;;;5045264;28;20037;-41
2023/07/07 09:41:03;;;;;;;2.22;1.60;;;22.20;99.90;;;;;;5044595;28;20096;-42
2023/07/07 09:43:50;;;;;;;1.40;1.30;;;22.30;99.90;;;;;;5037314;28;20049;-42
2023/07/07 09:46:25;;;;;;;1.52;1.40;;;22.30;99.90;;;;;;5045270;28;20047;-42
2023/07/07 09:48:59;;;;;;;1.75;1.20;;;22.30;99.90;;;;;;5045646;28;20484;-42
2023/07/07 09:51:39;;;;;;;1.60;1.50;;;22.30;99.90;;;;;;5044243;28;20025;-43
2023/07/07 09:54:10;;;;;;;1.27;1.17;;;22.40;99.70;;;;;;5045086;28;20640;-42
2023/07/07 09:57:01;;;;;;;4.13;1.63;;;22.50;99.40;;;;;;5045682;28;20552;-42
2023/07/07 09:59:31;;;;;;;2.05;1.48;;;22.60;99.20;;;;;;5045271;28;20507;-44
2023/07/07 10:01:57;;;;;;;2.78;1.88;;;22.70;99.20;;;;;;5044920;28;20029;-42
2023/07/07 10:04:25;;;;;;;2.28;1.50;;;22.70;99.10;;;;;;5045838;28;20119;-42
2023/07/07 10:07:05;;;;;;;2.47;1.23;;;22.70;99.00;;;;;;5050523;28;20083;-42
2023/07/07 10:09:31;;;;;;;1.65;1.27;;;22.80;98.80;;;;;;5045366;28;20129;-42
2023/07/07 10:11:58;;;;;;;2.47;1.40;;;22.90;98.60;;;;;;5045491;28;20560;-42
2023/07/07 10:14:27;;;;;;;1.63;1.30;;;23.00;98.50;;;;;;5044631;28;20740;-42
2023/07/07 10:16:55;;;;;;;2.20;1.58;;;23.00;98.50;;;;;;5044922;28;20032;-43
2023/07/07 10:19:24;;;;;;;1.80;1.48;;;23.00;98.30;;;;;;5045298;28;20037;-43
2023/07/07 10:21:50;;;;;;;3.13;1.83;;;23.10;98.10;;;;;;5044138;28;20220;-42
2023/07/07 10:24:16;;;;;;;1.70;1.25;;;23.10;97.90;;;;;;5044408;28;20033;-41
2023/07/07 10:26:47;;;;;;;2.38;1.60;;;23.20;97.80;;;;;;5045027;28;20362;-41
2023/07/07 10:29:17;;;;;;;1.77;1.60;;;23.20;97.60;;;;;;5040506;28;20033;-41
2023/07/07 10:31:49;;;;;;;1.38;1.27;;;23.20;97.40;;;;;;5044354;28;20025;-41
2023/07/07 10:34:36;;;;;;;2.58;1.60;;;23.30;97.10;;;;;;5044912;28;20040;-42
2023/07/07 10:37:14;;;;;;;2.38;1.50;;;23.30;97.00;;;;;;5044083;28;20025;-42
2023/07/07 10:39:39;;;;;;;3.47;1.85;;;23.30;96.90;;;;;;5043018;28;20031;-42
2023/07/07 10:42:13;;;;;;;1.60;1.50;;;23.40;96.80;;;;;;5044417;28;20036;-42
2023/07/07 10:44:39;;;;;;;2.28;1.83;;;23.40;96.50;;;;;;5044755;28;20065;-42
2023/07/07 10:47:10;;;;;;;2.75;1.77;;;23.30;96.30;;;;;;5044928;28;20067;-42
2023/07/07 10:49:36;;;;;;;1.77;1.60;;;23.30;96.30;;;;;;5044272;28;20020;-42
2023/07/07 10:52:39;;;;;;;3.67;1.90;;;23.30;96.20;;;;;;5044221;28;20025;-42
2023/07/07 10:55:15;;;;;;;2.15;1.55;;;23.40;96.10;;;;;;5044379;28;20594;-42
2023/07/07 10:58:34;;;;;;;2.08;1.52;;;23.50;96.10;;;;;;5043698;28;20037;-41
2023/07/07 11:01:23;;;;;;;3.00;1.50;;;23.50;96.10;;;;;;5010426;28;20124;-42
2023/07/07 11:04:00;;;;;;;2.38;1.90;;;23.60;96.10;;;;;;5049472;28;20094;-41
2023/07/07 11:06:37;;;;;;;2.58;1.60;;;23.70;95.80;;;;;;5050828;28;20474;-41
2023/07/07 11:09:11;;;;;;;1.75;1.45;;;23.80;95.50;;;;;;5050780;28;20028;-41
2023/07/07 11:11:50;;;;;;;2.10;1.60;;;23.90;95.40;;;;;;5050338;28;20468;-41
2023/07/07 11:15:00;;;;;;;2.15;1.40;;;23.90;95.30;;;;;;5051127;28;20104;-42
2023/07/07 11:17:38;;;;;;;2.13;1.60;;;23.80;95.30;;;;;;5017672;28;20041;-42
2023/07/07 11:20:15;;;;;;;2.38;1.48;;;23.70;95.40;;;;;;5045804;28;20056;-42
2023/07/07 11:23:18;;;;;;;1.75;1.42;;;23.70;95.30;;;;;;5051261;28;20036;-42
2023/07/07 11:26:13;;;;;;;2.08;1.45;;;23.70;95.20;;;;;;5049017;28;20542;-42
2023/07/07 11:29:00;;;;;;;1.98;1.52;;;23.60;95.20;;;;;;5050969;28;20025;-42
2023/07/07 11:32:03;;;;;;;1.63;1.25;;;23.70;95.00;;;;;;5050054;28;20061;-41
2023/07/07 11:34:31;;;;;;;;;;;23.80;94.90;;;;;;5047090;28;20033;-42
2023/07/07 11:37:38;;;;;;;2.53;1.48;;;23.80;94.90;;;;;;5051622;28;19908;-42
2023/07/07 11:40:19;;;;;;;2.55;1.30;;;23.80;94.70;;;;;;5038968;28;20044;-42
2023/07/07 11:42:51;;;;;;;2.53;1.50;;;23.90;94.70;;;;;;5050948;28;20044;-43
2023/07/07 11:45:36;;;;;;;2.42;1.65;;;24.00;94.60;;;;;;5049788;28;20449;-43
2023/07/07 11:48:26;;;;;;;1.60;1.33;;;24.10;94.10;;;;;;5051197;28;20040;-42
2023/07/07 11:50:54;;;;;;;1.88;1.50;;;24.20;94.10;;;;;;5050668;28;20021;-42
2023/07/07 11:53:44;;;;;;;2.08;1.65;;;24.20;94.00;;;;;;5049906;28;20028;-43
2023/07/07 11:56:36;;;;;;;2.35;1.50;;;24.20;93.80;;;;;;5050263;28;20044;-42
2023/07/07 11:59:28;;;;;;;2.25;1.70;;;24.20;93.90;;;;;;5031469;28;20029;-42
2023/07/07 12:01:55;;;;;;;1.85;1.75;;;24.20;93.60;;;;;;5048941;28;20041;-42
2023/07/07 12:04:30;;;;;;;2.08;1.55;;;24.40;93.40;;;;;;5050536;28;20025;-41
2023/07/07 12:07:03;;;;;;;2.50;1.67;;;24.50;93.20;;;;;;5049301;28;20083;-42
2023/07/07 12:09:35;;;;;;;1.92;1.77;;;24.50;93.20;;;;;;5050577;28;20494;-42
2023/07/07 12:12:26;;;;;;;2.42;1.60;;;24.50;93.00;;;;;;5050262;28;20024;-42
2023/07/07 12:15:09;;;;;;;1.60;1.45;;;24.40;93.20;;;;;;5027287;28;20564;-42
2023/07/07 12:17:40;;;;;;;1.67;1.30;;;24.40;93.10;;;;;;5047130;28;20055;-42
2023/07/07 12:20:14;;;;;;;2.28;1.50;;;24.40;93.10;;;;;;5047875;28;20035;-42
2023/07/07 12:22:43;;;;;;;3.65;1.70;;;24.50;93.20;;;;;;5046465;28;20041;-42
2023/07/07 12:25:27;;;;;;;3.25;1.73;;;24.70;92.80;;;;;;5047349;28;20029;-42
2023/07/07 12:27:54;;;;;;;1.52;1.40;;;24.80;92.60;;;;;;5046380;28;20033;-43
2023/07/07 12:30:39;;;;;;;5.25;1.73;;;24.70;92.60;;;;;;5047249;28;20036;-42
2023/07/07 12:33:05;;;;;;;1.95;1.65;;;24.70;92.60;;;;;;5042104;28;20044;-42
2023/07/07 12:35:56;;;;;;;3.00;1.73;;;24.80;92.70;;;;;;5047359;28;20021;-43
2023/07/07 12:38:30;;;;;;;1.65;1.52;;;25.00;92.40;;;;;;5047108;28;20052;-41
2023/07/07 12:41:10;;;;;;;2.35;1.80;;;25.10;92.10;;;;;;5047832;28;20488;-42
2023/07/07 12:43:39;;;;;;;2.03;1.83;;;25.00;91.80;;;;;;5046020;28;20061;-41
2023/07/07 12:46:15;;;;;;;1.92;1.73;;;25.00;91.60;;;;;;5046898;28;20052;-42
2023/07/07 12:48:44;;;;;;;2.13;1.92;;;25.10;91.60;;;;;;5046643;28;20025;-42
2023/07/07 12:51:15;;;;;;;1.60;1.50;;;25.00;91.50;;;;;;5047177;28;20021;-41
2023/07/07 12:53:44;;;;;;;2.60;1.45;;;25.00;91.50;;;;;;5046024;28;20112;-43
2023/07/07 12:56:09;;;;;;;1.88;1.52;;;25.00;91.50;;;;;;5045660;28;20021;-41
2023/07/07 12:58:44;;;;;;;2.00;1.80;;;25.10;91.10;;;;;;5046377;28;20044;-42
2023/07/07 13:01:18;;;;;;;3.08;2.03;;;25.20;90.80;;;;;;5046716;28;20056;-42
2023/07/07 13:04:05;;;;;;;1.65;1.50;;;25.30;90.70;;;;;;5045548;28;20025;-42
2023/07/07 13:06:39;;;;;;;3.17;2.05;;;25.40;90.70;;;;;;5026320;28;20060;-42
2023/07/07 13:09:16;;;;;;;1.95;1.70;;;25.50;90.60;;;;;;5044498;28;20025;-42
2023/07/07 13:11:43;;;;;;;2.60;1.63;;;25.70;90.20;;;;;;5045640;28;20037;-42